Wandering River, Canada
Current Conditions -  °F | °C
As of 7:00 PM on Saturday 22 Nov 2014 (Local Time) from CYZH Reporting Station
Light Snow Light Snow  
Wind Chill:   Ceiling: 1900
Heat Index: 18°   Visibility: 5mi
Dew Point: 14°   Wind: 9mph
Humidity: 86%   Direction: 320°NW
Pressure: 29.59"   Gusts: 17mph
Location:  55.2°N, 112.47°W
Report Text: CYZH 230200Z AUTO 32008G15KT 290V350 5SM -SN FEW013 BKN019 BKN024 OVC037 M08/M10 A2959 RMK SLP055
Loading
Personal Weather Stations






























Interactive Weather Map New forecast layout! Learn more

10-Day Weather Forecast

Advertisements
Track Severe Weather on mobile